sensor_id;sensor_type;location;lat;lon;timestamp;P1;durP1;ratioP1;P2;durP2;ratioP2
16824;SDS011;8529;48.108;-1.706;2023-07-13T00:00:30;5.38;;;2.35;;
16824;SDS011;8529;48.108;-1.706;2023-07-13T00:02:57;7.35;;;1.75;;
16824;SDS011;8529;48.108;-1.706;2023-07-13T00:05:24;5.85;;;1.98;;
16824;SDS011;8529;48.108;-1.706;2023-07-13T00:07:52;5.13;;;2.45;;
16824;SDS011;8529;48.108;-1.706;2023-07-13T00:10:21;3.15;;;1.92;;
16824;SDS011;8529;48.108;-1.706;2023-07-13T00:12:48;2.50;;;2.22;;
16824;SDS011;8529;48.108;-1.706;2023-07-13T00:15:17;2.35;;;2.15;;
16824;SDS011;8529;48.108;-1.706;2023-07-13T00:17:48;7.18;;;2.33;;
16824;SDS011;8529;48.108;-1.706;2023-07-13T00:20:15;4.18;;;2.25;;
16824;SDS011;8529;48.108;-1.706;2023-07-13T00:22:42;5.15;;;2.38;;
16824;SDS011;8529;48.108;-1.706;2023-07-13T00:25:10;3.67;;;1.88;;
16824;SDS011;8529;48.108;-1.706;2023-07-13T00:27:38;3.25;;;1.85;;
16824;SDS011;8529;48.108;-1.706;2023-07-13T00:30:06;3.38;;;1.88;;
16824;SDS011;8529;48.108;-1.706;2023-07-13T00:32:34;5.47;;;2.05;;
16824;SDS011;8529;48.108;-1.706;2023-07-13T00:35:01;2.47;;;1.77;;
16824;SDS011;8529;48.108;-1.706;2023-07-13T00:37:29;5.38;;;2.00;;
16824;SDS011;8529;48.108;-1.706;2023-07-13T00:39:56;3.92;;;1.90;;
16824;SDS011;8529;48.108;-1.706;2023-07-13T00:42:23;2.67;;;1.80;;
16824;SDS011;8529;48.108;-1.706;2023-07-13T00:45:02;3.88;;;2.05;;
16824;SDS011;8529;48.108;-1.706;2023-07-13T00:47:31;3.55;;;1.73;;
16824;SDS011;8529;48.108;-1.706;2023-07-13T00:49:58;2.92;;;1.95;;
16824;SDS011;8529;48.108;-1.706;2023-07-13T00:52:25;1.95;;;1.40;;
16824;SDS011;8529;48.108;-1.706;2023-07-13T00:54:53;2.90;;;2.22;;
16824;SDS011;8529;48.108;-1.706;2023-07-13T00:57:21;4.40;;;2.40;;
16824;SDS011;8529;48.108;-1.706;2023-07-13T00:59:49;8.13;;;2.53;;
16824;SDS011;8529;48.108;-1.706;2023-07-13T01:02:21;6.45;;;2.13;;
16824;SDS011;8529;48.108;-1.706;2023-07-13T01:04:49;2.83;;;2.30;;
16824;SDS011;8529;48.108;-1.706;2023-07-13T01:07:16;4.75;;;2.33;;
16824;SDS011;8529;48.108;-1.706;2023-07-13T01:09:45;6.28;;;2.08;;
16824;SDS011;8529;48.108;-1.706;2023-07-13T01:12:12;4.63;;;2.10;;
16824;SDS011;8529;48.108;-1.706;2023-07-13T01:14:39;3.50;;;1.88;;
16824;SDS011;8529;48.108;-1.706;2023-07-13T01:17:06;4.00;;;1.95;;
16824;SDS011;8529;48.108;-1.706;2023-07-13T01:19:37;5.13;;;1.80;;
16824;SDS011;8529;48.108;-1.706;2023-07-13T01:22:09;4.80;;;2.15;;
16824;SDS011;8529;48.108;-1.706;2023-07-13T01:24:38;4.25;;;2.03;;
16824;SDS011;8529;48.108;-1.706;2023-07-13T01:27:06;4.95;;;2.22;;
16824;SDS011;8529;48.108;-1.706;2023-07-13T01:29:34;4.35;;;2.10;;
16824;SDS011;8529;48.108;-1.706;2023-07-13T01:32:07;2.95;;;1.90;;
16824;SDS011;8529;48.108;-1.706;2023-07-13T01:34:34;5.10;;;2.00;;
16824;SDS011;8529;48.108;-1.706;2023-07-13T01:37:02;4.28;;;1.85;;
16824;SDS011;8529;48.108;-1.706;2023-07-13T01:39:31;5.60;;;2.13;;
16824;SDS011;8529;48.108;-1.706;2023-07-13T01:41:58;2.90;;;1.80;;
16824;SDS011;8529;48.108;-1.706;2023-07-13T01:44:25;3.63;;;1.85;;
16824;SDS011;8529;48.108;-1.706;2023-07-13T01:46:52;3.85;;;1.73;;
16824;SDS011;8529;48.108;-1.706;2023-07-13T01:49:19;5.55;;;2.22;;
16824;SDS011;8529;48.108;-1.706;2023-07-13T01:51:46;6.47;;;2.00;;
16824;SDS011;8529;48.108;-1.706;2023-07-13T01:54:13;3.95;;;2.28;;
16824;SDS011;8529;48.108;-1.706;2023-07-13T01:56:41;6.18;;;2.05;;
16824;SDS011;8529;48.108;-1.706;2023-07-13T01:59:08;6.30;;;2.08;;
16824;SDS011;8529;48.108;-1.706;2023-07-13T02:01:35;4.40;;;2.05;;
16824;SDS011;8529;48.108;-1.706;2023-07-13T02:04:02;4.00;;;1.98;;
16824;SDS011;8529;48.108;-1.706;2023-07-13T02:06:29;6.15;;;2.17;;
16824;SDS011;8529;48.108;-1.706;2023-07-13T02:08:57;7.45;;;2.58;;
16824;SDS011;8529;48.108;-1.706;2023-07-13T02:11:24;4.65;;;1.80;;
16824;SDS011;8529;48.108;-1.706;2023-07-13T02:13:58;4.03;;;2.30;;
16824;SDS011;8529;48.108;-1.706;2023-07-13T02:16:25;5.78;;;2.47;;
16824;SDS011;8529;48.108;-1.706;2023-07-13T02:18:52;5.65;;;2.08;;
16824;SDS011;8529;48.108;-1.706;2023-07-13T02:21:20;6.10;;;2.17;;
16824;SDS011;8529;48.108;-1.706;2023-07-13T02:23:47;8.18;;;3.83;;
16824;SDS011;8529;48.108;-1.706;2023-07-13T02:26:14;4.15;;;2.00;;
16824;SDS011;8529;48.108;-1.706;2023-07-13T02:28:41;4.78;;;2.35;;
16824;SDS011;8529;48.108;-1.706;2023-07-13T02:31:10;4.80;;;2.10;;
16824;SDS011;8529;48.108;-1.706;2023-07-13T02:33:39;3.85;;;1.85;;
16824;SDS011;8529;48.108;-1.706;2023-07-13T02:36:06;4.05;;;2.10;;
16824;SDS011;8529;48.108;-1.706;2023-07-13T02:38:33;3.97;;;1.80;;
16824;SDS011;8529;48.108;-1.706;2023-07-13T02:41:01;4.63;;;2.38;;
16824;SDS011;8529;48.108;-1.706;2023-07-13T02:43:28;3.75;;;1.75;;
16824;SDS011;8529;48.108;-1.706;2023-07-13T02:45:55;5.65;;;2.63;;
16824;SDS011;8529;48.108;-1.706;2023-07-13T02:48:27;6.18;;;2.47;;
16824;SDS011;8529;48.108;-1.706;2023-07-13T02:50:53;5.72;;;2.35;;
16824;SDS011;8529;48.108;-1.706;2023-07-13T02:53:20;3.00;;;1.90;;
16824;SDS011;8529;48.108;-1.706;2023-07-13T02:55:47;5.22;;;2.72;;
16824;SDS011;8529;48.108;-1.706;2023-07-13T02:58:14;6.55;;;2.15;;
16824;SDS011;8529;48.108;-1.706;2023-07-13T03:00:42;4.20;;;2.30;;
16824;SDS011;8529;48.108;-1.706;2023-07-13T03:03:11;7.35;;;2.50;;
16824;SDS011;8529;48.108;-1.706;2023-07-13T03:05:40;5.75;;;2.00;;
16824;SDS011;8529;48.108;-1.706;2023-07-13T03:08:09;8.15;;;2.28;;
16824;SDS011;8529;48.108;-1.706;2023-07-13T03:10:36;4.72;;;2.13;;
16824;SDS011;8529;48.108;-1.706;2023-07-13T03:13:05;6.18;;;1.98;;
16824;SDS011;8529;48.108;-1.706;2023-07-13T03:15:32;4.75;;;2.30;;
16824;SDS011;8529;48.108;-1.706;2023-07-13T03:17:59;4.38;;;2.58;;
16824;SDS011;8529;48.108;-1.706;2023-07-13T03:20:25;6.80;;;2.40;;
16824;SDS011;8529;48.108;-1.706;2023-07-13T03:22:54;5.07;;;2.60;;
16824;SDS011;8529;48.108;-1.706;2023-07-13T03:25:21;3.10;;;2.00;;
16824;SDS011;8529;48.108;-1.706;2023-07-13T03:27:47;4.57;;;2.10;;
16824;SDS011;8529;48.108;-1.706;2023-07-13T03:30:14;6.57;;;2.38;;
16824;SDS011;8529;48.108;-1.706;2023-07-13T03:32:41;6.35;;;2.75;;
16824;SDS011;8529;48.108;-1.706;2023-07-13T03:35:08;5.60;;;2.40;;
16824;SDS011;8529;48.108;-1.706;2023-07-13T03:37:36;10.63;;;2.38;;
16824;SDS011;8529;48.108;-1.706;2023-07-13T03:40:09;6.40;;;2.30;;
16824;SDS011;8529;48.108;-1.706;2023-07-13T03:42:37;7.93;;;2.70;;
16824;SDS011;8529;48.108;-1.706;2023-07-13T03:45:04;4.38;;;2.35;;
16824;SDS011;8529;48.108;-1.706;2023-07-13T03:47:31;4.57;;;2.80;;
16824;SDS011;8529;48.108;-1.706;2023-07-13T03:49:58;3.90;;;2.10;;
16824;SDS011;8529;48.108;-1.706;2023-07-13T03:52:25;6.15;;;2.78;;
16824;SDS011;8529;48.108;-1.706;2023-07-13T03:54:52;3.63;;;2.40;;
16824;SDS011;8529;48.108;-1.706;2023-07-13T03:57:20;6.97;;;2.80;;
16824;SDS011;8529;48.108;-1.706;2023-07-13T03:59:48;3.03;;;2.15;;
16824;SDS011;8529;48.108;-1.706;2023-07-13T04:02:14;6.35;;;2.45;;
16824;SDS011;8529;48.108;-1.706;2023-07-13T04:04:42;5.22;;;2.70;;
16824;SDS011;8529;48.108;-1.706;2023-07-13T04:07:09;5.63;;;2.17;;
16824;SDS011;8529;48.108;-1.706;2023-07-13T04:09:36;14.18;;;3.22;;
16824;SDS011;8529;48.108;-1.706;2023-07-13T04:12:03;3.92;;;2.45;;
16824;SDS011;8529;48.108;-1.706;2023-07-13T04:14:32;4.57;;;1.92;;
16824;SDS011;8529;48.108;-1.706;2023-07-13T04:16:59;8.63;;;2.63;;
16824;SDS011;8529;48.108;-1.706;2023-07-13T04:19:26;3.50;;;2.20;;
16824;SDS011;8529;48.108;-1.706;2023-07-13T04:21:53;5.10;;;2.53;;
16824;SDS011;8529;48.108;-1.706;2023-07-13T04:24:20;7.93;;;2.45;;
16824;SDS011;8529;48.108;-1.706;2023-07-13T04:26:46;6.68;;;2.67;;
16824;SDS011;8529;48.108;-1.706;2023-07-13T04:29:13;5.40;;;2.35;;
16824;SDS011;8529;48.108;-1.706;2023-07-13T04:31:41;6.00;;;2.35;;
16824;SDS011;8529;48.108;-1.706;2023-07-13T04:34:08;7.22;;;2.80;;
16824;SDS011;8529;48.108;-1.706;2023-07-13T04:36:35;3.72;;;2.03;;
16824;SDS011;8529;48.108;-1.706;2023-07-13T04:39:02;4.03;;;2.33;;
16824;SDS011;8529;48.108;-1.706;2023-07-13T04:41:29;4.70;;;2.40;;
16824;SDS011;8529;48.108;-1.706;2023-07-13T04:43:56;5.32;;;2.60;;
16824;SDS011;8529;48.108;-1.706;2023-07-13T04:46:23;5.72;;;2.72;;
16824;SDS011;8529;48.108;-1.706;2023-07-13T04:48:51;5.95;;;3.15;;
16824;SDS011;8529;48.108;-1.706;2023-07-13T04:51:19;4.88;;;2.70;;
16824;SDS011;8529;48.108;-1.706;2023-07-13T04:53:46;7.97;;;2.53;;
16824;SDS011;8529;48.108;-1.706;2023-07-13T04:56:13;7.40;;;2.97;;
16824;SDS011;8529;48.108;-1.706;2023-07-13T04:58:40;10.50;;;2.80;;
16824;SDS011;8529;48.108;-1.706;2023-07-13T05:01:07;6.78;;;2.58;;
16824;SDS011;8529;48.108;-1.706;2023-07-13T05:03:35;9.63;;;2.60;;
16824;SDS011;8529;48.108;-1.706;2023-07-13T05:06:04;5.32;;;2.35;;
16824;SDS011;8529;48.108;-1.706;2023-07-13T05:08:32;5.78;;;2.65;;
16824;SDS011;8529;48.108;-1.706;2023-07-13T05:10:59;4.55;;;2.33;;
16824;SDS011;8529;48.108;-1.706;2023-07-13T05:13:26;5.22;;;2.78;;
16824;SDS011;8529;48.108;-1.706;2023-07-13T05:15:57;8.00;;;2.72;;
16824;SDS011;8529;48.108;-1.706;2023-07-13T05:18:24;4.30;;;2.58;;
16824;SDS011;8529;48.108;-1.706;2023-07-13T05:20:56;5.22;;;2.38;;
16824;SDS011;8529;48.108;-1.706;2023-07-13T05:23:25;9.27;;;2.80;;
16824;SDS011;8529;48.108;-1.706;2023-07-13T05:25:53;8.00;;;2.70;;
16824;SDS011;8529;48.108;-1.706;2023-07-13T05:28:20;4.53;;;2.53;;
16824;SDS011;8529;48.108;-1.706;2023-07-13T05:30:48;6.88;;;2.40;;
16824;SDS011;8529;48.108;-1.706;2023-07-13T05:33:15;4.90;;;2.40;;
16824;SDS011;8529;48.108;-1.706;2023-07-13T05:35:42;7.55;;;2.40;;
16824;SDS011;8529;48.108;-1.706;2023-07-13T05:38:09;3.40;;;2.70;;
16824;SDS011;8529;48.108;-1.706;2023-07-13T05:40:37;5.63;;;2.85;;
16824;SDS011;8529;48.108;-1.706;2023-07-13T05:43:05;5.90;;;2.70;;
16824;SDS011;8529;48.108;-1.706;2023-07-13T05:45:31;9.32;;;3.03;;
16824;SDS011;8529;48.108;-1.706;2023-07-13T05:47:58;4.40;;;2.40;;
16824;SDS011;8529;48.108;-1.706;2023-07-13T05:50:25;8.27;;;2.75;;
16824;SDS011;8529;48.108;-1.706;2023-07-13T05:52:52;6.22;;;2.30;;
16824;SDS011;8529;48.108;-1.706;2023-07-13T05:55:19;4.70;;;2.75;;
16824;SDS011;8529;48.108;-1.706;2023-07-13T05:57:47;8.48;;;2.67;;
16824;SDS011;8529;48.108;-1.706;2023-07-13T06:00:15;5.93;;;2.53;;
16824;SDS011;8529;48.108;-1.706;2023-07-13T06:02:42;6.38;;;2.30;;
16824;SDS011;8529;48.108;-1.706;2023-07-13T06:05:09;7.85;;;2.70;;
16824;SDS011;8529;48.108;-1.706;2023-07-13T06:07:36;4.35;;;3.00;;
16824;SDS011;8529;48.108;-1.706;2023-07-13T06:10:04;7.13;;;2.45;;
16824;SDS011;8529;48.108;-1.706;2023-07-13T06:12:31;5.13;;;2.38;;
16824;SDS011;8529;48.108;-1.706;2023-07-13T06:15:00;7.10;;;2.90;;
16824;SDS011;8529;48.108;-1.706;2023-07-13T06:17:27;6.10;;;2.45;;
16824;SDS011;8529;48.108;-1.706;2023-07-13T06:19:54;5.80;;;2.50;;
16824;SDS011;8529;48.108;-1.706;2023-07-13T06:22:21;5.85;;;2.30;;
16824;SDS011;8529;48.108;-1.706;2023-07-13T06:24:47;3.67;;;2.53;;
16824;SDS011;8529;48.108;-1.706;2023-07-13T06:27:15;6.55;;;2.75;;
16824;SDS011;8529;48.108;-1.706;2023-07-13T06:29:42;4.07;;;2.30;;
16824;SDS011;8529;48.108;-1.706;2023-07-13T06:32:11;5.35;;;2.75;;
16824;SDS011;8529;48.108;-1.706;2023-07-13T06:34:38;6.90;;;2.72;;
16824;SDS011;8529;48.108;-1.706;2023-07-13T06:37:05;5.95;;;2.80;;
16824;SDS011;8529;48.108;-1.706;2023-07-13T06:39:32;7.25;;;2.67;;
16824;SDS011;8529;48.108;-1.706;2023-07-13T06:41:59;11.00;;;3.33;;
16824;SDS011;8529;48.108;-1.706;2023-07-13T06:44:26;5.80;;;2.67;;
16824;SDS011;8529;48.108;-1.706;2023-07-13T06:46:53;4.50;;;2.25;;
16824;SDS011;8529;48.108;-1.706;2023-07-13T06:49:21;7.15;;;2.25;;
16824;SDS011;8529;48.108;-1.706;2023-07-13T06:51:48;3.50;;;2.55;;
16824;SDS011;8529;48.108;-1.706;2023-07-13T06:54:15;4.80;;;2.70;;
16824;SDS011;8529;48.108;-1.706;2023-07-13T06:56:42;6.03;;;2.65;;
16824;SDS011;8529;48.108;-1.706;2023-07-13T06:59:09;3.13;;;2.58;;
16824;SDS011;8529;48.108;-1.706;2023-07-13T07:01:35;6.35;;;2.65;;
16824;SDS011;8529;48.108;-1.706;2023-07-13T07:04:02;5.47;;;2.60;;
16824;SDS011;8529;48.108;-1.706;2023-07-13T07:06:31;5.60;;;2.50;;
16824;SDS011;8529;48.108;-1.706;2023-07-13T07:08:58;7.05;;;2.50;;
16824;SDS011;8529;48.108;-1.706;2023-07-13T07:11:25;4.57;;;2.63;;
16824;SDS011;8529;48.108;-1.706;2023-07-13T07:13:52;8.38;;;2.60;;
16824;SDS011;8529;48.108;-1.706;2023-07-13T07:16:20;4.65;;;2.35;;
16824;SDS011;8529;48.108;-1.706;2023-07-13T07:18:47;6.22;;;2.50;;
16824;SDS011;8529;48.108;-1.706;2023-07-13T07:21:14;5.50;;;2.60;;
16824;SDS011;8529;48.108;-1.706;2023-07-13T07:23:43;4.13;;;2.50;;
16824;SDS011;8529;48.108;-1.706;2023-07-13T07:26:10;3.30;;;2.03;;
16824;SDS011;8529;48.108;-1.706;2023-07-13T07:28:37;9.13;;;3.30;;
16824;SDS011;8529;48.108;-1.706;2023-07-13T07:31:04;6.97;;;2.25;;
16824;SDS011;8529;48.108;-1.706;2023-07-13T07:33:32;4.90;;;2.38;;
16824;SDS011;8529;48.108;-1.706;2023-07-13T07:35:59;5.88;;;2.80;;
16824;SDS011;8529;48.108;-1.706;2023-07-13T07:38:26;7.32;;;2.28;;
16824;SDS011;8529;48.108;-1.706;2023-07-13T07:40:54;7.82;;;2.55;;
16824;SDS011;8529;48.108;-1.706;2023-07-13T07:43:21;5.53;;;2.53;;
16824;SDS011;8529;48.108;-1.706;2023-07-13T07:45:48;7.50;;;2.53;;
16824;SDS011;8529;48.108;-1.706;2023-07-13T07:48:15;5.60;;;2.28;;
16824;SDS011;8529;48.108;-1.706;2023-07-13T07:50:42;7.00;;;2.60;;
16824;SDS011;8529;48.108;-1.706;2023-07-13T07:53:10;4.60;;;2.78;;
16824;SDS011;8529;48.108;-1.706;2023-07-13T07:55:37;5.57;;;2.47;;
16824;SDS011;8529;48.108;-1.706;2023-07-13T07:58:06;5.40;;;2.33;;
16824;SDS011;8529;48.108;-1.706;2023-07-13T08:00:33;6.88;;;2.47;;
16824;SDS011;8529;48.108;-1.706;2023-07-13T08:03:00;6.30;;;2.30;;
16824;SDS011;8529;48.108;-1.706;2023-07-13T08:05:28;5.57;;;2.40;;
16824;SDS011;8529;48.108;-1.706;2023-07-13T08:07:55;5.03;;;1.80;;
16824;SDS011;8529;48.108;-1.706;2023-07-13T08:10:22;7.05;;;2.42;;
16824;SDS011;8529;48.108;-1.706;2023-07-13T08:12:49;4.20;;;2.00;;
16824;SDS011;8529;48.108;-1.706;2023-07-13T08:15:17;4.60;;;2.17;;
16824;SDS011;8529;48.108;-1.706;2023-07-13T08:17:45;4.85;;;2.33;;
16824;SDS011;8529;48.108;-1.706;2023-07-13T08:20:13;6.10;;;2.33;;
16824;SDS011;8529;48.108;-1.706;2023-07-13T08:22:40;4.97;;;2.10;;
16824;SDS011;8529;48.108;-1.706;2023-07-13T08:25:07;5.70;;;2.10;;
16824;SDS011;8529;48.108;-1.706;2023-07-13T08:27:34;7.05;;;2.28;;
16824;SDS011;8529;48.108;-1.706;2023-07-13T08:30:01;6.05;;;2.28;;
16824;SDS011;8529;48.108;-1.706;2023-07-13T08:32:32;9.60;;;2.20;;
16824;SDS011;8529;48.108;-1.706;2023-07-13T08:34:59;5.40;;;2.38;;
16824;SDS011;8529;48.108;-1.706;2023-07-13T08:37:26;5.57;;;1.92;;
16824;SDS011;8529;48.108;-1.706;2023-07-13T08:39:53;4.60;;;1.70;;
16824;SDS011;8529;48.108;-1.706;2023-07-13T08:42:22;4.82;;;1.73;;
16824;SDS011;8529;48.108;-1.706;2023-07-13T08:45:03;4.70;;;1.63;;
16824;SDS011;8529;48.108;-1.706;2023-07-13T08:47:40;3.95;;;1.50;;
16824;SDS011;8529;48.108;-1.706;2023-07-13T08:50:14;4.05;;;1.70;;
16824;SDS011;8529;48.108;-1.706;2023-07-13T08:52:43;3.55;;;1.48;;
16824;SDS011;8529;48.108;-1.706;2023-07-13T08:55:13;2.80;;;1.45;;
16824;SDS011;8529;48.108;-1.706;2023-07-13T08:57:42;4.35;;;1.42;;
16824;SDS011;8529;48.108;-1.706;2023-07-13T09:00:12;2.97;;;1.70;;
16824;SDS011;8529;48.108;-1.706;2023-07-13T09:02:43;3.20;;;1.40;;
16824;SDS011;8529;48.108;-1.706;2023-07-13T09:05:17;3.70;;;1.52;;
16824;SDS011;8529;48.108;-1.706;2023-07-13T09:07:55;2.75;;;1.17;;
16824;SDS011;8529;48.108;-1.706;2023-07-13T09:10:31;3.22;;;1.45;;
16824;SDS011;8529;48.108;-1.706;2023-07-13T09:13:10;3.00;;;1.30;;
16824;SDS011;8529;48.108;-1.706;2023-07-13T09:15:47;2.08;;;1.02;;
16824;SDS011;8529;48.108;-1.706;2023-07-13T09:18:18;3.80;;;1.48;;
16824;SDS011;8529;48.108;-1.706;2023-07-13T09:20:50;2.05;;;1.30;;
16824;SDS011;8529;48.108;-1.706;2023-07-13T09:23:22;4.00;;;1.25;;
16824;SDS011;8529;48.108;-1.706;2023-07-13T09:25:51;2.03;;;1.50;;
16824;SDS011;8529;48.108;-1.706;2023-07-13T09:28:22;2.40;;;1.30;;
16824;SDS011;8529;48.108;-1.706;2023-07-13T09:30:52;4.47;;;1.35;;
16824;SDS011;8529;48.108;-1.706;2023-07-13T09:33:25;3.53;;;1.20;;
16824;SDS011;8529;48.108;-1.706;2023-07-13T09:35:54;3.00;;;1.48;;
16824;SDS011;8529;48.108;-1.706;2023-07-13T09:38:22;3.22;;;1.30;;
16824;SDS011;8529;48.108;-1.706;2023-07-13T09:40:58;3.97;;;1.65;;
16824;SDS011;8529;48.108;-1.706;2023-07-13T09:43:34;3.95;;;1.50;;
16824;SDS011;8529;48.108;-1.706;2023-07-13T09:46:01;1.48;;;1.27;;
16824;SDS011;8529;48.108;-1.706;2023-07-13T09:48:34;2.83;;;1.33;;
16824;SDS011;8529;48.108;-1.706;2023-07-13T09:51:12;2.25;;;1.15;;
16824;SDS011;8529;48.108;-1.706;2023-07-13T09:53:41;2.20;;;1.65;;
16824;SDS011;8529;48.108;-1.706;2023-07-13T09:56:18;3.45;;;1.40;;
16824;SDS011;8529;48.108;-1.706;2023-07-13T09:58:46;3.47;;;1.20;;
16824;SDS011;8529;48.108;-1.706;2023-07-13T10:01:13;2.75;;;1.30;;
16824;SDS011;8529;48.108;-1.706;2023-07-13T10:03:51;2.03;;;1.23;;
16824;SDS011;8529;48.108;-1.706;2023-07-13T10:06:20;3.67;;;1.38;;
16824;SDS011;8529;48.108;-1.706;2023-07-13T10:08:48;3.30;;;1.35;;
16824;SDS011;8529;48.108;-1.706;2023-07-13T10:11:18;2.38;;;1.20;;
16824;SDS011;8529;48.108;-1.706;2023-07-13T10:13:48;2.47;;;1.13;;
16824;SDS011;8529;48.108;-1.706;2023-07-13T10:16:17;2.20;;;1.25;;
16824;SDS011;8529;48.108;-1.706;2023-07-13T10:18:46;2.15;;;1.40;;
16824;SDS011;8529;48.108;-1.706;2023-07-13T10:21:17;3.67;;;1.20;;
16824;SDS011;8529;48.108;-1.706;2023-07-13T10:23:47;1.63;;;1.17;;
16824;SDS011;8529;48.108;-1.706;2023-07-13T10:26:19;3.05;;;1.27;;
16824;SDS011;8529;48.108;-1.706;2023-07-13T10:28:52;1.88;;;1.05;;
16824;SDS011;8529;48.108;-1.706;2023-07-13T10:31:21;1.92;;;1.15;;
16824;SDS011;8529;48.108;-1.706;2023-07-13T10:33:51;2.50;;;1.08;;
16824;SDS011;8529;48.108;-1.706;2023-07-13T10:36:21;2.40;;;1.38;;
16824;SDS011;8529;48.108;-1.706;2023-07-13T10:38:55;2.72;;;1.45;;
16824;SDS011;8529;48.108;-1.706;2023-07-13T10:41:25;2.53;;;1.35;;
16824;SDS011;8529;48.108;-1.706;2023-07-13T10:43:55;2.20;;;1.40;;
16824;SDS011;8529;48.108;-1.706;2023-07-13T10:46:24;3.05;;;1.23;;
16824;SDS011;8529;48.108;-1.706;2023-07-13T10:48:55;3.17;;;1.00;;
16824;SDS011;8529;48.108;-1.706;2023-07-13T10:51:25;2.20;;;1.10;;
16824;SDS011;8529;48.108;-1.706;2023-07-13T10:54:11;2.00;;;1.27;;
16824;SDS011;8529;48.108;-1.706;2023-07-13T10:56:42;1.73;;;1.10;;
16824;SDS011;8529;48.108;-1.706;2023-07-13T10:59:12;1.90;;;1.27;;
16824;SDS011;8529;48.108;-1.706;2023-07-13T11:01:54;2.90;;;1.17;;
16824;SDS011;8529;48.108;-1.706;2023-07-13T11:04:24;3.58;;;1.70;;
16824;SDS011;8529;48.108;-1.706;2023-07-13T11:06:56;2.33;;;1.10;;
16824;SDS011;8529;48.108;-1.706;2023-07-13T11:09:35;2.60;;;1.38;;
16824;SDS011;8529;48.108;-1.706;2023-07-13T11:12:08;1.88;;;1.02;;
16824;SDS011;8529;48.108;-1.706;2023-07-13T11:15:02;2.58;;;1.25;;
16824;SDS011;8529;48.108;-1.706;2023-07-13T11:17:34;3.50;;;1.30;;
16824;SDS011;8529;48.108;-1.706;2023-07-13T11:20:30;2.33;;;1.23;;
16824;SDS011;8529;48.108;-1.706;2023-07-13T11:23:15;3.05;;;1.30;;
16824;SDS011;8529;48.108;-1.706;2023-07-13T11:25:57;1.88;;;1.20;;
16824;SDS011;8529;48.108;-1.706;2023-07-13T11:28:26;1.67;;;1.10;;
16824;SDS011;8529;48.108;-1.706;2023-07-13T11:31:00;1.90;;;1.25;;
16824;SDS011;8529;48.108;-1.706;2023-07-13T11:33:49;2.67;;;1.40;;
16824;SDS011;8529;48.108;-1.706;2023-07-13T11:36:20;3.40;;;1.60;;
16824;SDS011;8529;48.108;-1.706;2023-07-13T11:38:51;3.42;;;1.42;;
16824;SDS011;8529;48.108;-1.706;2023-07-13T11:41:26;1.88;;;1.23;;
16824;SDS011;8529;48.108;-1.706;2023-07-13T11:44:02;2.35;;;1.15;;
16824;SDS011;8529;48.108;-1.706;2023-07-13T11:46:33;1.77;;;1.20;;
16824;SDS011;8529;48.108;-1.706;2023-07-13T11:49:00;4.45;;;1.35;;
16824;SDS011;8529;48.108;-1.706;2023-07-13T11:51:29;3.17;;;1.15;;
16824;SDS011;8529;48.108;-1.706;2023-07-13T11:53:59;2.08;;;1.33;;
16824;SDS011;8529;48.108;-1.706;2023-07-13T11:56:28;2.10;;;1.20;;
16824;SDS011;8529;48.108;-1.706;2023-07-13T11:58:57;3.22;;;1.35;;
16824;SDS011;8529;48.108;-1.706;2023-07-13T12:01:29;3.55;;;1.40;;
16824;SDS011;8529;48.108;-1.706;2023-07-13T12:03:58;1.90;;;1.20;;
16824;SDS011;8529;48.108;-1.706;2023-07-13T12:06:29;4.57;;;1.77;;
16824;SDS011;8529;48.108;-1.706;2023-07-13T12:08:58;3.97;;;1.33;;
16824;SDS011;8529;48.108;-1.706;2023-07-13T12:11:28;3.30;;;1.92;;
16824;SDS011;8529;48.108;-1.706;2023-07-13T12:13:56;3.58;;;1.25;;
16824;SDS011;8529;48.108;-1.706;2023-07-13T12:16:25;1.80;;;1.30;;
16824;SDS011;8529;48.108;-1.706;2023-07-13T12:18:55;3.22;;;1.83;;
16824;SDS011;8529;48.108;-1.706;2023-07-13T12:21:23;4.20;;;1.33;;
16824;SDS011;8529;48.108;-1.706;2023-07-13T12:23:56;2.13;;;1.42;;
16824;SDS011;8529;48.108;-1.706;2023-07-13T12:26:23;5.72;;;1.80;;
16824;SDS011;8529;48.108;-1.706;2023-07-13T12:28:53;1.83;;;1.30;;
16824;SDS011;8529;48.108;-1.706;2023-07-13T12:31:32;2.28;;;1.20;;
16824;SDS011;8529;48.108;-1.706;2023-07-13T12:34:02;2.88;;;1.50;;
16824;SDS011;8529;48.108;-1.706;2023-07-13T12:36:35;4.10;;;1.77;;
16824;SDS011;8529;48.108;-1.706;2023-07-13T12:39:09;3.97;;;1.60;;
16824;SDS011;8529;48.108;-1.706;2023-07-13T12:41:40;2.53;;;1.40;;
16824;SDS011;8529;48.108;-1.706;2023-07-13T12:44:10;2.58;;;1.33;;
16824;SDS011;8529;48.108;-1.706;2023-07-13T12:46:39;1.45;;;1.23;;
16824;SDS011;8529;48.108;-1.706;2023-07-13T12:49:06;2.00;;;1.55;;
16824;SDS011;8529;48.108;-1.706;2023-07-13T12:51:35;1.95;;;1.30;;
16824;SDS011;8529;48.108;-1.706;2023-07-13T12:54:12;2.28;;;1.23;;
16824;SDS011;8529;48.108;-1.706;2023-07-13T12:56:42;3.40;;;1.15;;
16824;SDS011;8529;48.108;-1.706;2023-07-13T12:59:14;2.33;;;1.40;;
16824;SDS011;8529;48.108;-1.706;2023-07-13T13:01:45;3.05;;;1.50;;
16824;SDS011;8529;48.108;-1.706;2023-07-13T13:04:14;2.25;;;1.70;;
16824;SDS011;8529;48.108;-1.706;2023-07-13T13:06:47;2.90;;;1.63;;
16824;SDS011;8529;48.108;-1.706;2023-07-13T13:09:16;3.38;;;1.75;;
16824;SDS011;8529;48.108;-1.706;2023-07-13T13:11:45;2.92;;;1.13;;
16824;SDS011;8529;48.108;-1.706;2023-07-13T13:14:12;2.97;;;1.67;;
16824;SDS011;8529;48.108;-1.706;2023-07-13T13:16:43;3.67;;;1.40;;
16824;SDS011;8529;48.108;-1.706;2023-07-13T13:19:14;2.78;;;1.75;;
16824;SDS011;8529;48.108;-1.706;2023-07-13T13:21:43;2.55;;;1.45;;
16824;SDS011;8529;48.108;-1.706;2023-07-13T13:24:12;3.63;;;1.50;;
16824;SDS011;8529;48.108;-1.706;2023-07-13T13:26:41;3.50;;;1.50;;
16824;SDS011;8529;48.108;-1.706;2023-07-13T13:29:12;3.95;;;1.50;;
16824;SDS011;8529;48.108;-1.706;2023-07-13T13:31:40;3.47;;;1.70;;
16824;SDS011;8529;48.108;-1.706;2023-07-13T13:34:08;3.72;;;1.35;;
16824;SDS011;8529;48.108;-1.706;2023-07-13T13:36:36;2.80;;;1.50;;
16824;SDS011;8529;48.108;-1.706;2023-07-13T13:39:07;2.55;;;1.50;;
16824;SDS011;8529;48.108;-1.706;2023-07-13T13:41:49;1.30;;;1.20;;
16824;SDS011;8529;48.108;-1.706;2023-07-13T13:44:16;3.90;;;1.70;;
16824;SDS011;8529;48.108;-1.706;2023-07-13T13:46:44;3.88;;;1.55;;
16824;SDS011;8529;48.108;-1.706;2023-07-13T13:49:14;4.03;;;1.25;;
16824;SDS011;8529;48.108;-1.706;2023-07-13T13:51:43;2.78;;;1.83;;
16824;SDS011;8529;48.108;-1.706;2023-07-13T13:54:11;2.05;;;1.48;;
16824;SDS011;8529;48.108;-1.706;2023-07-13T13:56:42;3.22;;;1.50;;
16824;SDS011;8529;48.108;-1.706;2023-07-13T13:59:09;3.42;;;1.48;;
16824;SDS011;8529;48.108;-1.706;2023-07-13T14:01:36;3.00;;;1.60;;
16824;SDS011;8529;48.108;-1.706;2023-07-13T14:04:04;3.03;;;1.30;;
16824;SDS011;8529;48.108;-1.706;2023-07-13T14:06:31;4.95;;;1.70;;
16824;SDS011;8529;48.108;-1.706;2023-07-13T14:08:59;4.22;;;1.70;;
16824;SDS011;8529;48.108;-1.706;2023-07-13T14:11:27;3.88;;;1.55;;
16824;SDS011;8529;48.108;-1.706;2023-07-13T14:13:59;4.03;;;1.75;;
16824;SDS011;8529;48.108;-1.706;2023-07-13T14:16:29;3.75;;;1.80;;
16824;SDS011;8529;48.108;-1.706;2023-07-13T14:18:58;4.00;;;1.58;;
16824;SDS011;8529;48.108;-1.706;2023-07-13T14:21:26;2.72;;;1.85;;
16824;SDS011;8529;48.108;-1.706;2023-07-13T14:23:54;2.30;;;1.50;;
16824;SDS011;8529;48.108;-1.706;2023-07-13T14:26:22;2.38;;;1.20;;
16824;SDS011;8529;48.108;-1.706;2023-07-13T14:28:52;3.35;;;1.58;;
16824;SDS011;8529;48.108;-1.706;2023-07-13T14:31:21;5.68;;;1.77;;
16824;SDS011;8529;48.108;-1.706;2023-07-13T14:33:49;4.00;;;1.80;;
16824;SDS011;8529;48.108;-1.706;2023-07-13T14:36:25;3.85;;;1.52;;
16824;SDS011;8529;48.108;-1.706;2023-07-13T14:38:54;2.17;;;1.60;;
16824;SDS011;8529;48.108;-1.706;2023-07-13T14:41:21;3.97;;;1.98;;
16824;SDS011;8529;48.108;-1.706;2023-07-13T14:43:48;4.15;;;2.17;;
16824;SDS011;8529;48.108;-1.706;2023-07-13T14:46:23;3.00;;;1.38;;
16824;SDS011;8529;48.108;-1.706;2023-07-13T14:48:54;4.57;;;1.45;;
16824;SDS011;8529;48.108;-1.706;2023-07-13T14:51:26;3.90;;;1.50;;
16824;SDS011;8529;48.108;-1.706;2023-07-13T14:53:53;2.40;;;1.70;;
16824;SDS011;8529;48.108;-1.706;2023-07-13T14:56:19;3.40;;;1.70;;
16824;SDS011;8529;48.108;-1.706;2023-07-13T14:58:46;1.67;;;1.25;;